Terminal Aerodrome Forecast
Issued by NWS

Home | Current Version | Previous Version | Text Only | Print | Product List | Glossary On
Versions: 1 2 3 4 5 6 7 8 9 10 11 12 13 14 15 16 17 18 19 20 21 22 23 24 25 26 27
000
FTUS43 KDLH 300750 AAA
TAFHIB
TAF AMD
KHIB 300750Z 3008/3106 00000KT P6SM BKN002
     FM300900 00000KT 6SM BR SCT003
      TEMPO 3010/3014 3SM BR BKN003
     FM301400 21011KT P6SM SCT050=

USA.gov is the U.S. government's official web portal to all federal, state and local government web resources and services.